createdAt,value
2023-03-23T16:00:44.303Z,44.66
2023-03-23T16:03:59.537Z,44.17
2023-03-23T16:07:07.292Z,44.41
2023-03-23T16:10:19.368Z,46.06
2023-03-23T16:13:25.143Z,46.03
2023-03-23T16:16:49.721Z,45.53
2023-03-23T16:19:55.889Z,45.17
2023-03-23T16:23:01.320Z,44.04
2023-03-23T16:26:07.218Z,43.70
2023-03-23T16:29:28.427Z,45.53
2023-03-23T16:35:44.488Z,44.66
2023-03-23T16:38:53.038Z,43.94
2023-03-23T16:42:00.944Z,45.55
2023-03-23T16:45:07.387Z,45.46
2023-03-23T16:48:15.063Z,45.21
2023-03-23T16:51:21.239Z,45.64
2023-03-23T16:54:26.884Z,45.23
2023-03-23T16:57:35.489Z,44.55
2023-03-23T17:00:41.666Z,45.54
2023-03-23T17:03:47.131Z,45.47
2023-03-23T17:06:52.658Z,45.32
2023-03-23T17:09:58.626Z,46.04
2023-03-23T17:13:04.632Z,46.13
2023-03-23T17:16:10.856Z,46.79
2023-03-23T17:19:16.528Z,48.61
2023-03-23T17:22:22.199Z,49.50
2023-03-23T17:25:30.629Z,51.45
2023-03-23T17:28:36.563Z,53.71
2023-03-23T17:31:42.103Z,52.27
2023-03-23T17:34:48.100Z,51.18
2023-03-23T17:37:53.705Z,51.43
2023-03-23T17:41:00.722Z,52.18
2023-03-23T17:44:07.034Z,51.87
2023-03-23T17:47:13.107Z,52.90
2023-03-23T17:50:19.285Z,53.44
2023-03-23T17:53:26.730Z,54.37
2023-03-23T17:56:32.722Z,55.40
2023-03-23T17:59:38.339Z,56.38
2023-03-23T18:02:44.011Z,57.52
2023-03-23T18:05:51.325Z,57.84
2023-03-23T18:08:56.826Z,58.49
2023-03-23T18:12:02.030Z,58.90
2023-03-23T18:15:09.496Z,60.11
2023-03-23T18:18:14.690Z,59.23
2023-03-23T18:21:20.177Z,60.79
2023-03-23T18:24:25.663Z,60.97
2023-03-23T18:27:31.836Z,62.16
2023-03-23T18:30:37.252Z,63.03
2023-03-23T18:33:46.832Z,64.62
2023-03-23T18:36:52.540Z,66.61
2023-03-23T18:39:57.973Z,68.48
2023-03-23T18:43:03.366Z,69.89
2023-03-23T18:46:11.333Z,69.36
2023-03-23T18:49:16.425Z,70.77
2023-03-23T18:52:26.866Z,68.70
2023-03-23T18:55:32.596Z,66.18
2023-03-23T18:58:38.709Z,68.38
2023-03-23T19:01:44.154Z,72.34
2023-03-23T19:04:50.157Z,74.59
2023-03-23T19:07:55.682Z,76.83
2023-03-23T19:11:04.423Z,80.27
2023-03-23T19:14:09.874Z,79.77
2023-03-23T19:17:16.166Z,82.23
2023-03-23T19:23:35.444Z,83.26
2023-03-23T19:26:43.575Z,84.35
2023-03-23T19:29:49.088Z,81.84
2023-03-23T19:32:54.880Z,82.49
2023-03-23T19:36:09.137Z,84.54
2023-03-23T19:39:17.912Z,84.28
2023-03-23T19:42:23.852Z,83.49
2023-03-23T19:45:29.344Z,79.59
2023-03-23T19:48:34.796Z,80.41
2023-03-23T19:51:41.120Z,87.21
2023-03-23T19:54:46.543Z,85.26
2023-03-23T19:57:52.328Z,87.82
2023-03-23T20:01:00.943Z,86.44
2023-03-23T20:04:07.181Z,89.26
2023-03-23T20:07:12.763Z,92.05
2023-03-23T20:10:18.713Z,92.33
2023-03-23T20:13:24.322Z,94.70
2023-03-23T20:16:30.036Z,93.04
2023-03-23T20:19:36.636Z,100.00
2023-03-23T20:22:42.898Z,96.13
2023-03-23T20:28:56.538Z,95.77
2023-03-23T20:32:02.333Z,100.00
2023-03-23T20:35:10.964Z,100.00
2023-03-23T20:38:18.608Z,100.00
2023-03-23T20:41:24.719Z,100.00
2023-03-23T20:44:35.211Z,97.50
2023-03-23T20:47:41.840Z,97.08
2023-03-23T20:50:47.495Z,100.00
2023-03-23T20:53:53.565Z,100.00
2023-03-23T20:56:59.686Z,98.18
2023-03-23T21:00:06.903Z,96.95
2023-03-23T21:03:13.750Z,99.99
2023-03-23T21:06:19.588Z,100.00
2023-03-23T21:09:25.632Z,100.00
2023-03-23T21:12:31.077Z,100.00
2023-03-23T21:15:36.813Z,100.00
2023-03-23T21:18:42.628Z,100.00
2023-03-23T21:21:56.835Z,100.00
2023-03-23T21:25:02.809Z,100.00
2023-03-23T21:28:09.299Z,100.00
2023-03-23T21:31:15.451Z,100.00
2023-03-23T21:34:20.869Z,100.00
2023-03-23T21:37:26.641Z,100.00
2023-03-23T21:40:32.418Z,100.00
2023-03-23T21:43:41.054Z,100.00
2023-03-23T21:46:46.988Z,100.00
2023-03-23T21:49:52.828Z,100.00
2023-03-23T21:52:58.100Z,100.00
2023-03-23T21:56:06.099Z,100.00
2023-03-23T21:59:11.875Z,100.00
2023-03-23T22:02:17.674Z,100.00
2023-03-23T22:05:23.642Z,100.00
2023-03-23T22:08:30.257Z,100.00
2023-03-23T22:11:37.634Z,100.00
2023-03-23T22:14:43.178Z,100.00
2023-03-23T22:17:48.985Z,100.00
2023-03-23T22:20:54.625Z,100.00
2023-03-23T22:24:01.352Z,100.00
2023-03-23T22:27:07.396Z,100.00
2023-03-23T22:30:13.832Z,100.00
2023-03-23T22:33:20.249Z,100.00
2023-03-23T22:36:28.273Z,100.00
2023-03-23T22:39:35.110Z,100.00
2023-03-23T22:42:40.959Z,100.00
2023-03-23T22:45:46.698Z,100.00
2023-03-23T22:48:52.898Z,100.00
2023-03-23T22:51:58.308Z,100.00
2023-03-23T22:55:06.053Z,100.00
2023-03-23T22:58:12.346Z,100.00
2023-03-23T23:01:23.165Z,100.00
2023-03-23T23:04:30.811Z,100.00
2023-03-23T23:07:37.180Z,100.00
2023-03-23T23:10:46.597Z,100.00
2023-03-23T23:13:53.036Z,100.00
2023-03-23T23:16:58.577Z,100.00
2023-03-23T23:20:07.975Z,100.00
2023-03-23T23:23:13.537Z,100.00
2023-03-23T23:26:20.212Z,100.00
2023-03-23T23:29:26.154Z,100.00
2023-03-23T23:32:32.510Z,100.00
2023-03-23T23:35:38.710Z,100.00
2023-03-23T23:38:45.097Z,100.00
2023-03-23T23:41:51.050Z,100.00
2023-03-23T23:44:56.604Z,100.00
2023-03-23T23:48:02.315Z,100.00
2023-03-23T23:51:08.614Z,100.00
2023-03-23T23:54:15.168Z,100.00
2023-03-23T23:57:20.644Z,100.00
